METAR Data
IDs: Format: Raw Decoded Include TAF

Data at: 0935 UTC 26 Jan 2020

KCMY 260915Z AUTO 28005KT 10SM OVC013 M01/M02 A2993 RMK AO2 T10111025
KCMY 260855Z AUTO 28005KT 7SM -SN OVC013 M01/M02 A2993 RMK AO2 T10111025
KCMY 260835Z AUTO 27005KT 4SM -SN OVC013 M01/M02 A2993 RMK AO2 T10101025
KCMY 260815Z AUTO 26005KT 10SM OVC013 M01/M02 A2993 RMK AO2 T10081024
KCMY 260755Z AUTO 27008KT 10SM OVC013 M01/M02 A2993 RMK AO2 T10071022
KCMY 260735Z AUTO 27005KT 10SM OVC015 M01/M02 A2993 RMK AO2 T10071020
KCMY 260715Z AUTO 27005KT 10SM -SN OVC015 M01/M02 A2992 RMK AO2 T10061020
KCMY 260655Z AUTO 27005KT 10SM OVC015 00/M02 A2993 RMK AO2 T10051020
KCMY 260635Z AUTO 28005KT 10SM OVC015 00/M02 A2993 RMK AO2 T10041020
KCMY 260615Z AUTO 26004KT 10SM OVC015 00/M02 A2993 RMK AO2 T10041020
KCMY 260555Z AUTO 28005KT 10SM OVC013 00/M02 A2992 RMK AO2 T10031018 10005 21003 400071006
KCMY 260535Z AUTO 27004KT 10SM OVC013 00/M02 A2992 RMK AO2 T10031018
KCMY 260515Z AUTO 28003KT 10SM OVC013 00/M02 A2992 RMK AO2 T10021019
KCMY 260455Z AUTO 28005KT 10SM OVC013 00/M02 A2992 RMK AO2 T10021017
KCMY 260435Z AUTO 29005KT 10SM OVC013 00/M02 A2992 RMK AO2 T10021016
KCMY 260415Z AUTO 26006KT 10SM OVC013 00/M01 A2992 RMK AO2 T10021015
KCMY 260355Z AUTO 27006KT 10SM OVC013 00/M01 A2992 RMK AO2 T10021015
KCMY 260335Z AUTO 26005KT 10SM BKN015 BKN023 OVC028 00/M01 A2991 RMK AO2 T10031013
KCMY 260315Z AUTO 26003KT 10SM SCT015 BKN028 OVC037 00/M01 A2991 RMK AO2 T10031013
KCMY 260255Z AUTO 26004KT 10SM SCT015 OVC037 00/M01 A2990 RMK AO2 T10031012
KCMY 260235Z AUTO 28004KT 10SM OVC035 00/M01 A2990 RMK AO2 T10021012
KCMY 260215Z AUTO 27003KT 10SM SCT010 SCT017 OVC033 00/M01 A2991 RMK AO2 T10031011
KCMY 260155Z AUTO 27004KT 10SM SCT010 BKN026 OVC030 00/M01 A2991 RMK AO2 T10021011
KCMY 260135Z AUTO 29003KT 10SM BKN018 BKN023 OVC031 00/M01 A2991 RMK AO2 T00001012
KCMY 260115Z AUTO 30006KT 10SM SCT013 BKN018 OVC034 00/M01 A2991 RMK AO2 T00001013
KCMY 260055Z AUTO 28004KT 10SM BKN018 OVC038 00/M01 A2990 RMK AO2 T00041015
KCMY 260035Z AUTO 28003KT 10SM BKN018 OVC040 00/M01 A2990 RMK AO2 T00031015
KCMY 260015Z AUTO 30006KT 10SM OVC018 01/M02 A2990 RMK AO2 T00051016
KCMY 252355Z AUTO 30005KT 10SM BKN018 OVC031 01/M01 A2990 RMK AO2 60003 T00051015 10007 20000
KCMY 252335Z AUTO 28004KT 10SM SCT018 OVC029 01/M01 A2989 RMK AO2 T00051014
KCMY 252315Z AUTO 30007KT 10SM SCT017 BKN027 OVC039 01/M01 A2989 RMK AO2 T00061015
KCMY 252255Z AUTO 29008KT 10SM SCT019 BKN025 OVC039 01/M01 A2988 RMK AO2 T00061013
KCMY 252235Z AUTO 30007KT 10SM BKN019 OVC023 01/M01 A2988 RMK AO2 T00061012
KCMY 252215Z AUTO 30007KT 10SM OVC017 01/M01 A2987 RMK AO2 T00071012
KCMY 252155Z AUTO 29006KT 10SM OVC015 01/M01 A2987 RMK AO2 T00051010
KCMY 252135Z AUTO 29008KT 10SM OVC013 01/M01 A2987 RMK AO2 T00051011
KCMY 252115Z AUTO 29007KT 10SM OVC013 01/M01 A2987 RMK AO2 T00051010
KCMY 252055Z AUTO 29007KT 10SM OVC013 00/M01 A2987 RMK AO2 60003 T00041010
KCMY 252035Z AUTO 30009KT 10SM OVC011 00/M01 A2987 RMK AO2 T00031008
KCMY 252015Z AUTO 28006KT 10SM OVC011 00/M01 A2986 RMK AO2 T00011008
KCMY 251955Z AUTO 28006KT 5SM -SN OVC011 00/00 A2985 RMK AO2 P0001 T00021005
KCMY 251935Z AUTO 29008KT 10SM OVC011 00/00 A2985 RMK AO2 T00011005
KCMY 251915Z AUTO 29008KT 7SM OVC011 00/M01 A2985 RMK AO2 T00011006
KCMY 251855Z AUTO 30008KT 7SM OVC011 00/M01 A2986 RMK AO2 P0002 T00021006
KCMY 251835Z AUTO 28005KT 10SM OVC011 00/M01 A2986 RMK AO2 P0001 T00011008
KCMY 251815Z AUTO 29007KT 10SM OVC011 00/M01 A2986 RMK AO2 P0001 T00001010
KCMY 251755Z AUTO 29007KT 10SM OVC011 00/M01 A2986 RMK AO2 60002 T00001010 10000 21006
KCMY 251735Z AUTO 29007KT 5SM BR OVC011 00/M01 A2986 RMK AO2 T00001010
KCMY 251715Z AUTO 28008KT 10SM OVC011 00/M01 A2987 RMK AO2 T10011010
KCMY 251655Z AUTO 30007KT 5SM BR OVC009 00/M01 A2987 RMK AO2 P0001 T10021010
KCMY 251635Z AUTO 29006KT 10SM OVC009 00/M01 A2987 RMK AO2 T10031010
KCMY 251615Z AUTO 30006KT 4SM -SN BKN009 OVC013 00/M01 A2987 RMK AO2 T10051010
KCMY 251555Z AUTO 29007KT 7SM BKN009 OVC012 00/M01 A2986 RMK AO2 P0001 T10051010
KCMY 251535Z AUTO 29006KT 2 1/2SM -SN OVC009 M01/M01 A2986 RMK AO2 P0001 T10061010
KCMY 251515Z AUTO 29005KT 1 3/4SM -SN OVC009 M01/M01 A2986 RMK AO2 T10061011
KCMY 251455Z AUTO 29006KT 5SM -SN OVC009 M01/M01 A2985 RMK AO2 T10061012
KCMY 251435Z AUTO 28007KT 10SM OVC009 00/M01 A2985 RMK AO2 T10051011
KCMY 251415Z AUTO 28006KT 10SM OVC009 M01/M01 A2986 RMK AO2 T10061011
KCMY 251355Z AUTO 28005KT 10SM OVC011 00/M01 A2986 RMK AO2 T10051010
KCMY 251335Z AUTO 29006KT 4SM -SN OVC011 00/M01 A2985 RMK AO2 T10051010
KCMY 251315Z AUTO 30006KT 4SM -SN OVC011 00/M01 A2984 RMK AO2 T10051010
KCMY 251255Z AUTO 30005KT 5SM -SN OVC011 00/M01 A2984 RMK AO2 T10051010
KCMY 251235Z AUTO 30007KT 7SM -SN OVC011 00/M01 A2984 RMK AO2 T10051010
KCMY 251215Z AUTO 30006KT 4SM -SN BKN011 OVC060 M01/M01 A2983 RMK AO2 T10061010
KCMY 251155Z AUTO 30005KT 3SM -SN OVC009 M01/M01 A2983 RMK AO2 60002 70022 T10061008 10000 21006
KCMY 251135Z AUTO 31006KT 2 1/2SM -SN OVC009 M01/M01 A2983 RMK AO2 T10061008
KCMY 251115Z AUTO 31006KT 3SM -SN OVC009 M01/M01 A2983 RMK AO2 T10061008
KCMY 251055Z AUTO 31004KT 3SM -SN OVC009 00/M01 A2983 RMK AO2 T10051007
KCMY 251035Z AUTO 30005KT 3SM -SN OVC009 00/M01 A2983 RMK AO2 T10051008
KCMY 251015Z AUTO 30007KT 4SM -SN OVC009 00/M01 A2983 RMK AO2 T10051007
KCMY 250955Z AUTO 31006KT 4SM -SN OVC009 00/M01 A2983 RMK AO2 P0001 T10051007
KCMY 250935Z AUTO 30006KT 10SM OVC009 00/M01 A2983 RMK AO2 P0001 T10041007
KCMY 250915Z AUTO 31005KT 7SM -SN OVC009 00/M01 A2983 RMK AO2 P0001 T10031006
KCMY 250855Z AUTO 31006KT 7SM -SN OVC009 00/M01 A2983 RMK AO2 60001 T10031006
KCMY 250835Z AUTO 30007KT 10SM -SN OVC009 00/M01 A2984 RMK AO2 T10031006
KCMY 250815Z AUTO 31006KT 7SM -SN OVC009 00/00 A2984 RMK AO2 T10021005
KCMY 250755Z AUTO 30007KT 7SM -SN BKN008 OVC012 00/00 A2984 RMK AO2 P0001 T10021005
KCMY 250735Z AUTO 32004KT 5SM -SN OVC008 00/00 A2984 RMK AO2 P0001 T10021005
KCMY 250715Z AUTO 31005KT 5SM -SN OVC008 00/00 A2984 RMK AO2 P0001 T10021005
KCMY 250655Z AUTO 31005KT 5SM -SN OVC008 00/00 A2984 RMK AO2 T10011005
KCMY 250635Z AUTO 30006KT 10SM UP OVC010 00/00 A2985 RMK AO2 T00001005
KCMY 250615Z AUTO 32005KT 10SM OVC010 00/00 A2985 RMK AO2 T00001005
KCMY 250555Z AUTO 31005KT 10SM BKN010 OVC014 00/00 A2986 RMK AO2 60004 T00001005 10000 20000 400061017
KCMY 250535Z AUTO 31005KT 10SM OVC010 00/00 A2986 RMK AO2 T00001005
KCMY 250515Z AUTO 31005KT 10SM OVC010 00/00 A2986 RMK AO2 T00001004
KCMY 250455Z AUTO 32004KT 10SM OVC010 00/00 A2986 RMK AO2 P0001 T00001004
KCMY 250435Z AUTO 32005KT 10SM OVC010 00/00 A2986 RMK AO2 T00001003
KCMY 250415Z AUTO 32005KT 10SM OVC008 00/00 A2987 RMK AO2 T00001003
KCMY 250355Z AUTO 32004KT 10SM OVC008 00/00 A2987 RMK AO2 P0001 T00001003
KCMY 250335Z AUTO 32004KT 10SM OVC008 00/00 A2987 RMK AO2 P0001 T00001002
KCMY 250315Z AUTO 34003KT 10SM OVC008 00/00 A2987 RMK AO2 T00001003
KCMY 250255Z AUTO 35003KT 10SM OVC008 00/00 A2988 RMK AO2 60002 T00001003
KCMY 250235Z AUTO 34003KT 10SM OVC008 00/00 A2988 RMK AO2 T00001002
KCMY 250215Z AUTO 35004KT 10SM OVC008 00/00 A2988 RMK AO2 T00001002
KCMY 250155Z AUTO 34004KT 10SM OVC008 00/00 A2988 RMK AO2 P0001 T00001003
KCMY 250135Z AUTO 35004KT 10SM OVC008 00/00 A2988 RMK AO2 T00001003
KCMY 250115Z AUTO 35003KT 10SM OVC008 00/00 A2989 RMK AO2 T00001002
KCMY 250055Z AUTO 35005KT 10SM OVC008 00/00 A2989 RMK AO2 P0001 T00001002
KCMY 250035Z AUTO 34003KT 10SM OVC008 00/00 A2989 RMK AO2 P0001 T00001002
KCMY 250015Z AUTO 35003KT 10SM OVC008 00/00 A2989 RMK AO2 P0001 T00001002
KCMY 242355Z AUTO 35004KT 10SM BKN008 00/00 A2989 RMK AO2 P0001 60010 T00001001 10006 20000
KCMY 242335Z AUTO 34003KT 7SM SCT008 00/00 A2989 RMK AO2 P0001 T00001001
KCMY 242315Z AUTO 00000KT 10SM CLR 00/00 A2989 RMK AO2 P0001 T00001001
KCMY 242255Z AUTO 34003KT 7SM CLR 00/00 A2989 RMK AO2 P0001 T00001001
KCMY 242235Z AUTO 34004KT 5SM -DZ SCT009 SCT014 00/00 A2989 RMK AO2 P0001 T00000000
KCMY 242215Z AUTO 35003KT 4SM -DZ BKN011 OVC014 00/00 A2989 RMK AO2 T00020000
KCMY 242155Z AUTO 36004KT 4SM -DZ OVC011 00/00 A2989 RMK AO2 P0002 T00030000